Terminal Aerodrome Forecast
Issued by NWS Lake Charles, LA

Current Version | Previous Version | Text Only | Print | Product List | Glossary On
Versions: 1 2 3 4 5 6 7 8 9 10 11 12 13 14 15 16 17 18 19 20 21
000
FTUS44 KLCH 241720
TAFLCH
TAF
KLCH 241720Z 2418/2518 19007KT P6SM VCTS SCT025CB BKN040
      TEMPO 2418/2422 2SM TSRA BKN025CB
     FM250100 VRB04KT P6SM VCTS SCT025CB BKN200
     FM251500 05007KT P6SM VCTS SCT025CB BKN040=

USA.gov is the U.S. government's official web portal to all federal, state and local government web resources and services.